ZW-0029 weather

Chikwenya Game Lodge Airstrip
Mashonaland West Province, Zimbabwe

Public forecast

Using degrees Celsius for public forecast. Weather courtesy of forecast.io.

METAR (pilot weather report)

Report is more than 6 hours old.

Closest report is Kariba International Airport, 63.6 nm (117.7 km) SW. Retrieved 2019/09/22 15:00 UTC (23 hours ago):

FVKB 221500Z 26003KT CAVOK 34/09 Q1010 NOSIG

TAF (pilot weather forecast)

Forecast is more than 12 hours old.

Closest forecast is Jeki Airport, 4.0 nm (7.5 km) NNE. Retrieved 2019/09/20 00:00 UTC (4 days ago):

TAF FLJK 202200Z 2100/2206 VRB03KT CAVOK BECMG 2104/2108 10010KT 9000 HZ SKC BECMG 2112/2115 09005KT 9000 FEW040